sensor_id;sensor_type;location;lat;lon;timestamp;P1;durP1;ratioP1;P2;durP2;ratioP2
36725;SDS011;44936;52.086;5.150;2023-03-01T00:02:03;10.05;;;3.28;;
36725;SDS011;44936;52.086;5.150;2023-03-01T00:04:29;6.97;;;2.90;;
36725;SDS011;44936;52.086;5.150;2023-03-01T00:06:55;7.10;;;2.88;;
36725;SDS011;44936;52.086;5.150;2023-03-01T00:09:21;5.57;;;2.78;;
36725;SDS011;44936;52.086;5.150;2023-03-01T00:11:46;6.18;;;2.83;;
36725;SDS011;44936;52.086;5.150;2023-03-01T00:14:12;9.35;;;2.50;;
36725;SDS011;44936;52.086;5.150;2023-03-01T00:16:41;7.30;;;3.25;;
36725;SDS011;44936;52.086;5.150;2023-03-01T00:19:10;10.68;;;3.10;;
36725;SDS011;44936;52.086;5.150;2023-03-01T00:21:38;7.70;;;3.47;;
36725;SDS011;44936;52.086;5.150;2023-03-01T00:24:04;7.38;;;2.88;;
36725;SDS011;44936;52.086;5.150;2023-03-01T00:26:31;7.70;;;2.95;;
36725;SDS011;44936;52.086;5.150;2023-03-01T00:28:57;6.18;;;2.97;;
36725;SDS011;44936;52.086;5.150;2023-03-01T00:31:24;7.70;;;3.20;;
36725;SDS011;44936;52.086;5.150;2023-03-01T00:33:52;7.25;;;2.78;;
36725;SDS011;44936;52.086;5.150;2023-03-01T00:36:22;11.70;;;4.00;;
36725;SDS011;44936;52.086;5.150;2023-03-01T00:38:49;8.75;;;2.95;;
36725;SDS011;44936;52.086;5.150;2023-03-01T00:41:16;7.28;;;2.75;;
36725;SDS011;44936;52.086;5.150;2023-03-01T00:43:42;7.25;;;2.80;;
36725;SDS011;44936;52.086;5.150;2023-03-01T01:29:59;10.48;;;3.80;;
36725;SDS011;44936;52.086;5.150;2023-03-01T01:32:24;8.95;;;3.72;;
36725;SDS011;44936;52.086;5.150;2023-03-01T01:34:50;7.68;;;3.30;;
36725;SDS011;44936;52.086;5.150;2023-03-01T01:37:15;6.57;;;2.70;;
36725;SDS011;44936;52.086;5.150;2023-03-01T01:39:40;7.13;;;3.08;;
36725;SDS011;44936;52.086;5.150;2023-03-01T01:42:06;8.52;;;3.28;;
36725;SDS011;44936;52.086;5.150;2023-03-01T01:44:45;8.90;;;3.42;;
36725;SDS011;44936;52.086;5.150;2023-03-01T01:47:16;8.70;;;3.70;;
36725;SDS011;44936;52.086;5.150;2023-03-01T01:52:16;7.60;;;3.00;;
36725;SDS011;44936;52.086;5.150;2023-03-01T01:54:50;9.85;;;3.45;;
36725;SDS011;44936;52.086;5.150;2023-03-01T01:57:25;9.95;;;3.42;;
36725;SDS011;44936;52.086;5.150;2023-03-01T02:00:00;10.68;;;4.30;;
36725;SDS011;44936;52.086;5.150;2023-03-01T02:02:35;11.27;;;4.13;;
36725;SDS011;44936;52.086;5.150;2023-03-01T02:05:06;12.75;;;3.90;;
36725;SDS011;44936;52.086;5.150;2023-03-01T02:07:38;11.57;;;3.88;;
36725;SDS011;44936;52.086;5.150;2023-03-01T02:10:05;9.88;;;4.03;;
36725;SDS011;44936;52.086;5.150;2023-03-01T02:12:31;10.18;;;3.60;;
36725;SDS011;44936;52.086;5.150;2023-03-01T02:14:57;11.23;;;3.50;;
36725;SDS011;44936;52.086;5.150;2023-03-01T02:17:22;9.40;;;3.50;;
36725;SDS011;44936;52.086;5.150;2023-03-01T02:22:33;11.40;;;3.97;;
36725;SDS011;44936;52.086;5.150;2023-03-01T02:25:04;9.77;;;3.67;;
36725;SDS011;44936;52.086;5.150;2023-03-01T02:27:33;11.80;;;4.07;;
36725;SDS011;44936;52.086;5.150;2023-03-01T02:30:14;10.68;;;3.85;;
36725;SDS011;44936;52.086;5.150;2023-03-01T02:32:40;8.88;;;3.47;;
36725;SDS011;44936;52.086;5.150;2023-03-01T02:35:08;9.90;;;3.78;;
36725;SDS011;44936;52.086;5.150;2023-03-01T02:37:36;11.35;;;3.97;;
36725;SDS011;44936;52.086;5.150;2023-03-01T02:40:04;10.65;;;3.88;;
36725;SDS011;44936;52.086;5.150;2023-03-01T02:42:39;9.57;;;3.80;;
36725;SDS011;44936;52.086;5.150;2023-03-01T02:45:10;11.75;;;4.10;;
36725;SDS011;44936;52.086;5.150;2023-03-01T02:47:36;10.57;;;3.63;;
36725;SDS011;44936;52.086;5.150;2023-03-01T02:50:01;9.93;;;4.10;;
36725;SDS011;44936;52.086;5.150;2023-03-01T02:52:28;12.13;;;3.97;;
36725;SDS011;44936;52.086;5.150;2023-03-01T02:57:31;10.93;;;3.72;;
36725;SDS011;44936;52.086;5.150;2023-03-01T02:59:59;14.05;;;4.22;;
36725;SDS011;44936;52.086;5.150;2023-03-01T03:02:32;9.20;;;3.50;;
36725;SDS011;44936;52.086;5.150;2023-03-01T03:05:12;13.63;;;4.13;;
36725;SDS011;44936;52.086;5.150;2023-03-01T03:07:40;12.45;;;3.80;;
36725;SDS011;44936;52.086;5.150;2023-03-01T03:10:12;10.93;;;3.95;;
36725;SDS011;44936;52.086;5.150;2023-03-01T03:13:12;12.45;;;3.88;;
36725;SDS011;44936;52.086;5.150;2023-03-01T03:15:39;12.07;;;3.90;;
36725;SDS011;44936;52.086;5.150;2023-03-01T03:18:07;9.25;;;3.60;;
36725;SDS011;44936;52.086;5.150;2023-03-01T03:20:35;10.73;;;3.97;;
36725;SDS011;44936;52.086;5.150;2023-03-01T03:23:01;11.60;;;4.60;;
36725;SDS011;44936;52.086;5.150;2023-03-01T03:25:27;8.63;;;3.47;;
36725;SDS011;44936;52.086;5.150;2023-03-01T03:27:53;10.85;;;4.05;;
36725;SDS011;44936;52.086;5.150;2023-03-01T03:30:27;12.43;;;4.00;;
36725;SDS011;44936;52.086;5.150;2023-03-01T03:32:54;10.05;;;3.90;;
36725;SDS011;44936;52.086;5.150;2023-03-01T03:35:30;11.60;;;3.88;;
36725;SDS011;44936;52.086;5.150;2023-03-01T03:37:59;14.18;;;4.70;;
36725;SDS011;44936;52.086;5.150;2023-03-01T03:40:26;10.63;;;3.63;;
36725;SDS011;44936;52.086;5.150;2023-03-01T03:42:54;12.23;;;4.05;;
36725;SDS011;44936;52.086;5.150;2023-03-01T03:45:19;9.48;;;3.53;;
36725;SDS011;44936;52.086;5.150;2023-03-01T03:47:45;10.93;;;4.10;;
36725;SDS011;44936;52.086;5.150;2023-03-01T03:50:11;11.07;;;3.75;;
36725;SDS011;44936;52.086;5.150;2023-03-01T03:52:37;10.45;;;4.25;;
36725;SDS011;44936;52.086;5.150;2023-03-01T03:55:03;10.88;;;3.67;;
36725;SDS011;44936;52.086;5.150;2023-03-01T03:57:34;9.05;;;3.58;;
36725;SDS011;44936;52.086;5.150;2023-03-01T03:59:59;11.18;;;3.65;;
36725;SDS011;44936;52.086;5.150;2023-03-01T04:02:25;12.38;;;3.85;;
36725;SDS011;44936;52.086;5.150;2023-03-01T04:04:51;10.75;;;3.80;;
36725;SDS011;44936;52.086;5.150;2023-03-01T04:07:16;10.63;;;4.30;;
36725;SDS011;44936;52.086;5.150;2023-03-01T04:09:42;13.18;;;4.60;;
36725;SDS011;44936;52.086;5.150;2023-03-01T04:12:08;13.48;;;4.10;;
36725;SDS011;44936;52.086;5.150;2023-03-01T04:14:34;13.68;;;4.60;;
36725;SDS011;44936;52.086;5.150;2023-03-01T04:16:59;12.40;;;4.50;;
36725;SDS011;44936;52.086;5.150;2023-03-01T04:19:25;10.07;;;3.80;;
36725;SDS011;44936;52.086;5.150;2023-03-01T04:21:52;14.00;;;4.20;;
36725;SDS011;44936;52.086;5.150;2023-03-01T04:24:17;12.70;;;4.47;;
36725;SDS011;44936;52.086;5.150;2023-03-01T04:26:43;11.82;;;4.20;;
36725;SDS011;44936;52.086;5.150;2023-03-01T04:29:08;10.32;;;3.75;;
36725;SDS011;44936;52.086;5.150;2023-03-01T04:31:33;10.40;;;3.80;;
36725;SDS011;44936;52.086;5.150;2023-03-01T04:33:59;12.88;;;3.70;;
36725;SDS011;44936;52.086;5.150;2023-03-01T04:36:26;9.00;;;3.85;;
36725;SDS011;44936;52.086;5.150;2023-03-01T04:38:53;9.23;;;3.83;;
36725;SDS011;44936;52.086;5.150;2023-03-01T04:41:19;11.27;;;4.65;;
36725;SDS011;44936;52.086;5.150;2023-03-01T04:43:46;10.40;;;3.60;;
36725;SDS011;44936;52.086;5.150;2023-03-01T04:46:14;11.88;;;3.88;;
36725;SDS011;44936;52.086;5.150;2023-03-01T04:48:41;11.15;;;3.65;;
36725;SDS011;44936;52.086;5.150;2023-03-01T04:51:08;11.27;;;4.30;;
36725;SDS011;44936;52.086;5.150;2023-03-01T04:53:33;9.93;;;3.70;;
36725;SDS011;44936;52.086;5.150;2023-03-01T04:56:01;11.35;;;3.50;;
36725;SDS011;44936;52.086;5.150;2023-03-01T04:58:27;9.93;;;3.58;;
36725;SDS011;44936;52.086;5.150;2023-03-01T05:00:53;14.40;;;4.22;;
36725;SDS011;44936;52.086;5.150;2023-03-01T05:03:19;12.90;;;4.65;;
36725;SDS011;44936;52.086;5.150;2023-03-01T05:05:46;10.93;;;4.55;;
36725;SDS011;44936;52.086;5.150;2023-03-01T05:08:13;10.52;;;3.90;;
36725;SDS011;44936;52.086;5.150;2023-03-01T05:10:46;8.55;;;3.85;;
36725;SDS011;44936;52.086;5.150;2023-03-01T05:13:13;11.48;;;4.03;;
36725;SDS011;44936;52.086;5.150;2023-03-01T05:15:45;12.38;;;3.83;;
36725;SDS011;44936;52.086;5.150;2023-03-01T05:18:12;13.05;;;3.88;;
36725;SDS011;44936;52.086;5.150;2023-03-01T05:20:37;11.10;;;4.57;;
36725;SDS011;44936;52.086;5.150;2023-03-01T05:23:03;10.63;;;3.88;;
36725;SDS011;44936;52.086;5.150;2023-03-01T05:25:30;13.18;;;4.00;;
36725;SDS011;44936;52.086;5.150;2023-03-01T05:27:58;11.57;;;3.78;;
36725;SDS011;44936;52.086;5.150;2023-03-01T05:30:23;10.45;;;3.70;;
36725;SDS011;44936;52.086;5.150;2023-03-01T05:32:49;13.55;;;4.57;;
36725;SDS011;44936;52.086;5.150;2023-03-01T05:35:20;9.77;;;3.95;;
36725;SDS011;44936;52.086;5.150;2023-03-01T05:37:47;14.68;;;3.90;;
36725;SDS011;44936;52.086;5.150;2023-03-01T05:40:18;10.85;;;4.25;;
36725;SDS011;44936;52.086;5.150;2023-03-01T05:42:45;13.05;;;4.45;;
36725;SDS011;44936;52.086;5.150;2023-03-01T05:45:13;13.32;;;4.30;;
36725;SDS011;44936;52.086;5.150;2023-03-01T05:47:40;13.98;;;4.75;;
36725;SDS011;44936;52.086;5.150;2023-03-01T05:50:10;15.80;;;4.68;;
36725;SDS011;44936;52.086;5.150;2023-03-01T05:52:44;14.13;;;4.07;;
36725;SDS011;44936;52.086;5.150;2023-03-01T05:55:31;11.15;;;4.03;;
36725;SDS011;44936;52.086;5.150;2023-03-01T05:58:07;13.52;;;4.53;;
36725;SDS011;44936;52.086;5.150;2023-03-01T06:00:35;10.85;;;3.90;;
36725;SDS011;44936;52.086;5.150;2023-03-01T06:03:01;9.70;;;4.30;;
36725;SDS011;44936;52.086;5.150;2023-03-01T06:05:27;12.80;;;4.20;;
36725;SDS011;44936;52.086;5.150;2023-03-01T06:07:52;10.88;;;4.88;;
36725;SDS011;44936;52.086;5.150;2023-03-01T06:10:19;10.80;;;3.95;;
36725;SDS011;44936;52.086;5.150;2023-03-01T06:12:46;10.90;;;4.03;;
36725;SDS011;44936;52.086;5.150;2023-03-01T06:15:13;12.50;;;4.43;;
36725;SDS011;44936;52.086;5.150;2023-03-01T06:17:40;14.43;;;4.75;;
36725;SDS011;44936;52.086;5.150;2023-03-01T06:20:09;13.70;;;4.90;;
36725;SDS011;44936;52.086;5.150;2023-03-01T06:22:39;11.75;;;3.92;;
36725;SDS011;44936;52.086;5.150;2023-03-01T06:25:06;12.35;;;4.07;;
36725;SDS011;44936;52.086;5.150;2023-03-01T06:27:32;12.20;;;3.63;;
36725;SDS011;44936;52.086;5.150;2023-03-01T06:29:57;9.95;;;4.57;;
36725;SDS011;44936;52.086;5.150;2023-03-01T06:32:23;11.57;;;4.15;;
36725;SDS011;44936;52.086;5.150;2023-03-01T06:34:49;11.77;;;4.30;;
36725;SDS011;44936;52.086;5.150;2023-03-01T06:37:15;13.52;;;4.78;;
36725;SDS011;44936;52.086;5.150;2023-03-01T06:39:40;8.70;;;3.67;;
36725;SDS011;44936;52.086;5.150;2023-03-01T06:42:07;13.00;;;4.03;;
36725;SDS011;44936;52.086;5.150;2023-03-01T06:44:33;18.10;;;4.55;;
36725;SDS011;44936;52.086;5.150;2023-03-01T06:46:58;15.85;;;4.50;;
36725;SDS011;44936;52.086;5.150;2023-03-01T06:49:24;14.65;;;4.65;;
36725;SDS011;44936;52.086;5.150;2023-03-01T06:51:49;14.02;;;4.25;;
36725;SDS011;44936;52.086;5.150;2023-03-01T06:54:14;13.30;;;4.50;;
36725;SDS011;44936;52.086;5.150;2023-03-01T06:56:40;12.43;;;4.07;;
36725;SDS011;44936;52.086;5.150;2023-03-01T06:59:05;10.82;;;4.20;;
36725;SDS011;44936;52.086;5.150;2023-03-01T07:01:31;13.80;;;4.30;;
36725;SDS011;44936;52.086;5.150;2023-03-01T07:03:56;14.02;;;4.32;;
36725;SDS011;44936;52.086;5.150;2023-03-01T07:06:22;11.32;;;4.53;;
36725;SDS011;44936;52.086;5.150;2023-03-01T07:08:48;14.63;;;4.43;;
36725;SDS011;44936;52.086;5.150;2023-03-01T07:11:14;12.43;;;4.00;;
36725;SDS011;44936;52.086;5.150;2023-03-01T07:13:40;12.18;;;4.25;;
36725;SDS011;44936;52.086;5.150;2023-03-01T07:16:05;14.95;;;3.75;;
36725;SDS011;44936;52.086;5.150;2023-03-01T07:18:31;12.55;;;4.93;;
36725;SDS011;44936;52.086;5.150;2023-03-01T07:20:56;12.68;;;4.05;;
36725;SDS011;44936;52.086;5.150;2023-03-01T07:23:22;15.63;;;4.65;;
36725;SDS011;44936;52.086;5.150;2023-03-01T07:25:51;15.00;;;4.28;;
36725;SDS011;44936;52.086;5.150;2023-03-01T07:28:18;11.80;;;4.63;;
36725;SDS011;44936;52.086;5.150;2023-03-01T07:30:43;12.68;;;4.43;;
36725;SDS011;44936;52.086;5.150;2023-03-01T07:33:09;15.73;;;5.28;;
36725;SDS011;44936;52.086;5.150;2023-03-01T07:35:34;14.02;;;4.65;;
36725;SDS011;44936;52.086;5.150;2023-03-01T07:38:00;16.17;;;5.13;;
36725;SDS011;44936;52.086;5.150;2023-03-01T07:40:25;16.23;;;4.97;;
36725;SDS011;44936;52.086;5.150;2023-03-01T07:42:54;12.57;;;4.35;;
36725;SDS011;44936;52.086;5.150;2023-03-01T07:45:23;18.52;;;5.13;;
36725;SDS011;44936;52.086;5.150;2023-03-01T07:47:53;14.88;;;5.28;;
36725;SDS011;44936;52.086;5.150;2023-03-01T07:50:19;12.85;;;4.45;;
36725;SDS011;44936;52.086;5.150;2023-03-01T07:52:46;16.15;;;4.75;;
36725;SDS011;44936;52.086;5.150;2023-03-01T07:55:12;14.10;;;5.03;;
36725;SDS011;44936;52.086;5.150;2023-03-01T07:57:38;11.60;;;5.00;;
36725;SDS011;44936;52.086;5.150;2023-03-01T08:00:04;10.80;;;3.65;;
36725;SDS011;44936;52.086;5.150;2023-03-01T08:02:30;18.35;;;4.70;;
36725;SDS011;44936;52.086;5.150;2023-03-01T08:04:56;12.68;;;4.47;;
36725;SDS011;44936;52.086;5.150;2023-03-01T08:07:21;12.82;;;4.57;;
36725;SDS011;44936;52.086;5.150;2023-03-01T08:09:46;14.52;;;4.30;;
36725;SDS011;44936;52.086;5.150;2023-03-01T08:12:12;14.65;;;4.47;;
36725;SDS011;44936;52.086;5.150;2023-03-01T08:14:37;12.52;;;4.28;;
36725;SDS011;44936;52.086;5.150;2023-03-01T08:17:02;13.60;;;4.25;;
36725;SDS011;44936;52.086;5.150;2023-03-01T08:19:28;12.02;;;3.78;;
36725;SDS011;44936;52.086;5.150;2023-03-01T08:21:54;13.55;;;3.67;;
36725;SDS011;44936;52.086;5.150;2023-03-01T08:24:19;13.90;;;4.43;;
36725;SDS011;44936;52.086;5.150;2023-03-01T08:26:45;15.50;;;4.68;;
36725;SDS011;44936;52.086;5.150;2023-03-01T08:29:10;16.73;;;4.80;;
36725;SDS011;44936;52.086;5.150;2023-03-01T08:31:37;10.82;;;3.75;;
36725;SDS011;44936;52.086;5.150;2023-03-01T08:34:07;12.05;;;4.25;;
36725;SDS011;44936;52.086;5.150;2023-03-01T08:36:35;10.00;;;3.45;;
36725;SDS011;44936;52.086;5.150;2023-03-01T08:39:03;10.27;;;3.50;;
36725;SDS011;44936;52.086;5.150;2023-03-01T08:41:29;9.38;;;3.25;;
36725;SDS011;44936;52.086;5.150;2023-03-01T08:43:55;12.15;;;3.58;;
36725;SDS011;44936;52.086;5.150;2023-03-01T08:46:24;12.52;;;3.67;;
36725;SDS011;44936;52.086;5.150;2023-03-01T08:48:54;10.60;;;3.75;;
36725;SDS011;44936;52.086;5.150;2023-03-01T08:51:20;9.65;;;3.38;;
36725;SDS011;44936;52.086;5.150;2023-03-01T08:53:46;11.50;;;3.33;;
36725;SDS011;44936;52.086;5.150;2023-03-01T08:56:12;8.90;;;3.15;;
36725;SDS011;44936;52.086;5.150;2023-03-01T08:58:38;11.52;;;3.70;;
36725;SDS011;44936;52.086;5.150;2023-03-01T09:01:10;10.48;;;3.92;;
36725;SDS011;44936;52.086;5.150;2023-03-01T09:03:37;9.52;;;2.70;;
36725;SDS011;44936;52.086;5.150;2023-03-01T09:06:03;6.00;;;2.90;;
36725;SDS011;44936;52.086;5.150;2023-03-01T09:08:30;9.50;;;4.22;;
36725;SDS011;44936;52.086;5.150;2023-03-01T09:11:00;8.02;;;3.10;;
36725;SDS011;44936;52.086;5.150;2023-03-01T09:13:27;9.88;;;3.22;;
36725;SDS011;44936;52.086;5.150;2023-03-01T09:15:55;11.65;;;3.28;;
36725;SDS011;44936;52.086;5.150;2023-03-01T09:18:21;7.45;;;3.30;;
36725;SDS011;44936;52.086;5.150;2023-03-01T09:20:46;8.43;;;3.45;;
36725;SDS011;44936;52.086;5.150;2023-03-01T09:23:11;10.35;;;3.15;;
36725;SDS011;44936;52.086;5.150;2023-03-01T09:25:37;9.05;;;3.30;;
36725;SDS011;44936;52.086;5.150;2023-03-01T09:28:02;11.63;;;3.00;;
36725;SDS011;44936;52.086;5.150;2023-03-01T09:30:28;10.30;;;3.45;;
36725;SDS011;44936;52.086;5.150;2023-03-01T09:32:55;6.88;;;3.25;;
36725;SDS011;44936;52.086;5.150;2023-03-01T09:35:21;8.55;;;2.97;;
36725;SDS011;44936;52.086;5.150;2023-03-01T09:37:47;7.90;;;2.42;;
36725;SDS011;44936;52.086;5.150;2023-03-01T09:40:15;10.93;;;2.88;;
36725;SDS011;44936;52.086;5.150;2023-03-01T09:45:55;10.32;;;3.15;;
36725;SDS011;44936;52.086;5.150;2023-03-01T09:48:26;7.03;;;3.03;;
36725;SDS011;44936;52.086;5.150;2023-03-01T09:50:56;10.25;;;2.58;;
36725;SDS011;44936;52.086;5.150;2023-03-01T09:53:23;7.15;;;2.38;;
36725;SDS011;44936;52.086;5.150;2023-03-01T09:56:02;3.97;;;2.08;;
36725;SDS011;44936;52.086;5.150;2023-03-01T10:01:29;6.72;;;2.17;;
36725;SDS011;44936;52.086;5.150;2023-03-01T10:04:12;3.45;;;2.08;;
36725;SDS011;44936;52.086;5.150;2023-03-01T10:09:47;4.03;;;1.48;;
36725;SDS011;44936;52.086;5.150;2023-03-01T10:12:20;3.80;;;1.65;;
36725;SDS011;44936;52.086;5.150;2023-03-01T10:17:57;6.28;;;2.28;;
36725;SDS011;44936;52.086;5.150;2023-03-01T10:20:39;4.25;;;1.80;;
36725;SDS011;44936;52.086;5.150;2023-03-01T10:23:18;5.15;;;1.88;;
36725;SDS011;44936;52.086;5.150;2023-03-01T10:25:49;6.00;;;2.00;;
36725;SDS011;44936;52.086;5.150;2023-03-01T10:31:00;5.30;;;2.47;;
36725;SDS011;44936;52.086;5.150;2023-03-01T10:33:33;5.68;;;2.47;;
36725;SDS011;44936;52.086;5.150;2023-03-01T10:36:02;6.20;;;2.10;;
36725;SDS011;44936;52.086;5.150;2023-03-01T10:38:29;4.85;;;2.17;;
36725;SDS011;44936;52.086;5.150;2023-03-01T10:41:00;5.28;;;2.13;;
36725;SDS011;44936;52.086;5.150;2023-03-01T10:43:43;7.97;;;2.90;;
36725;SDS011;44936;52.086;5.150;2023-03-01T10:46:33;4.68;;;1.95;;
36725;SDS011;44936;52.086;5.150;2023-03-01T10:49:19;5.57;;;2.17;;
36725;SDS011;44936;52.086;5.150;2023-03-01T10:51:50;4.10;;;1.75;;
36725;SDS011;44936;52.086;5.150;2023-03-01T10:54:25;5.00;;;2.10;;
36725;SDS011;44936;52.086;5.150;2023-03-01T10:57:00;6.40;;;2.33;;
36725;SDS011;44936;52.086;5.150;2023-03-01T10:59:34;6.00;;;2.28;;
36725;SDS011;44936;52.086;5.150;2023-03-01T11:05:00;4.95;;;1.60;;
36725;SDS011;44936;52.086;5.150;2023-03-01T11:07:26;6.38;;;2.00;;
36725;SDS011;44936;52.086;5.150;2023-03-01T11:09:52;5.25;;;1.92;;
36725;SDS011;44936;52.086;5.150;2023-03-01T11:12:17;4.82;;;1.55;;
36725;SDS011;44936;52.086;5.150;2023-03-01T11:15:19;2.95;;;1.33;;
36725;SDS011;44936;52.086;5.150;2023-03-01T11:17:45;3.65;;;1.70;;
36725;SDS011;44936;52.086;5.150;2023-03-01T11:22:47;3.90;;;2.22;;
36725;SDS011;44936;52.086;5.150;2023-03-01T11:25:16;5.55;;;2.30;;
36725;SDS011;44936;52.086;5.150;2023-03-01T11:27:44;5.32;;;1.67;;
36725;SDS011;44936;52.086;5.150;2023-03-01T11:30:19;6.63;;;1.98;;
36725;SDS011;44936;52.086;5.150;2023-03-01T11:32:47;6.78;;;1.90;;
36725;SDS011;44936;52.086;5.150;2023-03-01T11:35:26;6.80;;;2.20;;
36725;SDS011;44936;52.086;5.150;2023-03-01T11:40:46;3.75;;;2.00;;
36725;SDS011;44936;52.086;5.150;2023-03-01T11:43:41;7.07;;;1.98;;
36725;SDS011;44936;52.086;5.150;2023-03-01T11:56:53;7.23;;;2.00;;
36725;SDS011;44936;52.086;5.150;2023-03-01T11:59:30;5.32;;;1.98;;
36725;SDS011;44936;52.086;5.150;2023-03-01T12:10:23;6.32;;;2.22;;
36725;SDS011;44936;52.086;5.150;2023-03-01T12:12:56;6.82;;;2.55;;
36725;SDS011;44936;52.086;5.150;2023-03-01T12:18:13;6.05;;;1.95;;
36725;SDS011;44936;52.086;5.150;2023-03-01T12:26:32;3.88;;;1.60;;
36725;SDS011;44936;52.086;5.150;2023-03-01T12:43:12;4.35;;;1.55;;
36725;SDS011;44936;52.086;5.150;2023-03-01T12:45:57;4.13;;;1.60;;
36725;SDS011;44936;52.086;5.150;2023-03-01T12:51:26;3.08;;;1.52;;
36725;SDS011;44936;52.086;5.150;2023-03-01T12:53:55;7.22;;;1.95;;
36725;SDS011;44936;52.086;5.150;2023-03-01T12:56:25;8.48;;;2.17;;
36725;SDS011;44936;52.086;5.150;2023-03-01T12:59:09;6.43;;;2.10;;
36725;SDS011;44936;52.086;5.150;2023-03-01T13:01:45;6.07;;;1.90;;
36725;SDS011;44936;52.086;5.150;2023-03-01T13:04:28;5.57;;;1.98;;
36725;SDS011;44936;52.086;5.150;2023-03-01T13:13:30;4.95;;;1.88;;
36725;SDS011;44936;52.086;5.150;2023-03-01T13:15:39;5.07;;;2.00;;
36725;SDS011;44936;52.086;5.150;2023-03-01T13:33:50;5.00;;;2.30;;
36725;SDS011;44936;52.086;5.150;2023-03-01T13:47:36;4.45;;;2.00;;
36725;SDS011;44936;52.086;5.150;2023-03-01T13:49:44;4.85;;;1.80;;
36725;SDS011;44936;52.086;5.150;2023-03-01T13:52:24;4.00;;;1.73;;
36725;SDS011;44936;52.086;5.150;2023-03-01T13:55:05;4.10;;;1.75;;
36725;SDS011;44936;52.086;5.150;2023-03-01T13:57:38;3.63;;;1.73;;
36725;SDS011;44936;52.086;5.150;2023-03-01T14:00:06;4.07;;;1.77;;
36725;SDS011;44936;52.086;5.150;2023-03-01T14:02:59;4.70;;;2.10;;
36725;SDS011;44936;52.086;5.150;2023-03-01T14:05:29;3.53;;;2.22;;
36725;SDS011;44936;52.086;5.150;2023-03-01T14:07:55;4.03;;;1.50;;
36725;SDS011;44936;52.086;5.150;2023-03-01T14:10:20;4.07;;;2.05;;
36725;SDS011;44936;52.086;5.150;2023-03-01T14:15:39;4.50;;;1.80;;
36725;SDS011;44936;52.086;5.150;2023-03-01T14:18:18;6.00;;;1.73;;
36725;SDS011;44936;52.086;5.150;2023-03-01T14:20:52;4.47;;;1.65;;
36725;SDS011;44936;52.086;5.150;2023-03-01T14:23:18;3.90;;;1.75;;
36725;SDS011;44936;52.086;5.150;2023-03-01T14:25:49;5.43;;;1.88;;
36725;SDS011;44936;52.086;5.150;2023-03-01T14:28:24;5.25;;;1.80;;
36725;SDS011;44936;52.086;5.150;2023-03-01T14:30:58;4.65;;;1.90;;
36725;SDS011;44936;52.086;5.150;2023-03-01T14:36:00;4.30;;;1.75;;
36725;SDS011;44936;52.086;5.150;2023-03-01T14:38:41;4.13;;;2.03;;
36725;SDS011;44936;52.086;5.150;2023-03-01T14:41:14;4.72;;;1.67;;
36725;SDS011;44936;52.086;5.150;2023-03-01T14:46:19;4.18;;;1.85;;
36725;SDS011;44936;52.086;5.150;2023-03-01T14:51:27;3.92;;;1.83;;
36725;SDS011;44936;52.086;5.150;2023-03-01T14:53:52;4.60;;;1.70;;
36725;SDS011;44936;52.086;5.150;2023-03-01T14:56:18;5.20;;;1.73;;
36725;SDS011;44936;52.086;5.150;2023-03-01T14:58:44;3.83;;;1.60;;
36725;SDS011;44936;52.086;5.150;2023-03-01T15:01:13;3.80;;;1.50;;
36725;SDS011;44936;52.086;5.150;2023-03-01T15:03:45;5.55;;;1.77;;
36725;SDS011;44936;52.086;5.150;2023-03-01T15:06:19;5.97;;;1.95;;
36725;SDS011;44936;52.086;5.150;2023-03-01T15:08:49;3.88;;;2.08;;
36725;SDS011;44936;52.086;5.150;2023-03-01T15:13:49;5.35;;;2.05;;
36725;SDS011;44936;52.086;5.150;2023-03-01T15:16:38;6.55;;;1.60;;
36725;SDS011;44936;52.086;5.150;2023-03-01T15:19:06;3.72;;;1.58;;
36725;SDS011;44936;52.086;5.150;2023-03-01T15:21:36;5.65;;;1.90;;
36725;SDS011;44936;52.086;5.150;2023-03-01T15:26:45;5.32;;;2.47;;
36725;SDS011;44936;52.086;5.150;2023-03-01T15:29:19;5.70;;;2.33;;
36725;SDS011;44936;52.086;5.150;2023-03-01T15:31:57;6.28;;;2.30;;
36725;SDS011;44936;52.086;5.150;2023-03-01T15:34:25;6.43;;;1.98;;
36725;SDS011;44936;52.086;5.150;2023-03-01T15:36:54;6.07;;;1.75;;
36725;SDS011;44936;52.086;5.150;2023-03-01T15:39:36;7.07;;;1.90;;
36725;SDS011;44936;52.086;5.150;2023-03-01T15:42:09;6.43;;;1.88;;
36725;SDS011;44936;52.086;5.150;2023-03-01T15:45:20;3.30;;;1.73;;
36725;SDS011;44936;52.086;5.150;2023-03-01T15:47:50;3.47;;;1.70;;
36725;SDS011;44936;52.086;5.150;2023-03-01T15:50:22;3.72;;;1.75;;
36725;SDS011;44936;52.086;5.150;2023-03-01T15:52:53;5.28;;;2.05;;
36725;SDS011;44936;52.086;5.150;2023-03-01T15:55:21;6.68;;;2.00;;
36725;SDS011;44936;52.086;5.150;2023-03-01T15:58:04;4.82;;;2.17;;
36725;SDS011;44936;52.086;5.150;2023-03-01T16:00:36;4.40;;;1.73;;
36725;SDS011;44936;52.086;5.150;2023-03-01T16:03:02;4.65;;;1.75;;
36725;SDS011;44936;52.086;5.150;2023-03-01T16:05:28;4.90;;;2.05;;
36725;SDS011;44936;52.086;5.150;2023-03-01T16:07:56;3.63;;;1.73;;
36725;SDS011;44936;52.086;5.150;2023-03-01T16:10:22;7.25;;;2.03;;
36725;SDS011;44936;52.086;5.150;2023-03-01T16:12:48;4.13;;;1.95;;
36725;SDS011;44936;52.086;5.150;2023-03-01T16:15:18;6.05;;;1.50;;
36725;SDS011;44936;52.086;5.150;2023-03-01T16:17:46;3.67;;;1.77;;
36725;SDS011;44936;52.086;5.150;2023-03-01T16:20:12;3.08;;;1.30;;
36725;SDS011;44936;52.086;5.150;2023-03-01T16:22:40;3.95;;;1.65;;
36725;SDS011;44936;52.086;5.150;2023-03-01T16:25:11;5.65;;;1.92;;
36725;SDS011;44936;52.086;5.150;2023-03-01T16:27:38;4.47;;;1.80;;
36725;SDS011;44936;52.086;5.150;2023-03-01T16:30:04;6.45;;;2.10;;
36725;SDS011;44936;52.086;5.150;2023-03-01T16:32:32;4.85;;;1.88;;
36725;SDS011;44936;52.086;5.150;2023-03-01T16:34:58;5.57;;;2.15;;
36725;SDS011;44936;52.086;5.150;2023-03-01T16:37:23;5.78;;;2.35;;
36725;SDS011;44936;52.086;5.150;2023-03-01T16:39:48;4.97;;;1.77;;
36725;SDS011;44936;52.086;5.150;2023-03-01T16:42:17;4.13;;;1.60;;
36725;SDS011;44936;52.086;5.150;2023-03-01T16:44:42;3.20;;;1.45;;
36725;SDS011;44936;52.086;5.150;2023-03-01T16:47:08;4.47;;;1.70;;
36725;SDS011;44936;52.086;5.150;2023-03-01T16:49:33;4.03;;;1.92;;
36725;SDS011;44936;52.086;5.150;2023-03-01T16:51:58;6.30;;;2.33;;
36725;SDS011;44936;52.086;5.150;2023-03-01T16:54:27;3.58;;;1.70;;
36725;SDS011;44936;52.086;5.150;2023-03-01T16:56:52;4.55;;;1.95;;
36725;SDS011;44936;52.086;5.150;2023-03-01T16:59:17;5.22;;;1.77;;
36725;SDS011;44936;52.086;5.150;2023-03-01T17:01:44;4.05;;;1.88;;
36725;SDS011;44936;52.086;5.150;2023-03-01T17:04:10;7.03;;;2.00;;
36725;SDS011;44936;52.086;5.150;2023-03-01T17:06:36;4.35;;;1.75;;
36725;SDS011;44936;52.086;5.150;2023-03-01T17:09:01;5.82;;;2.10;;
36725;SDS011;44936;52.086;5.150;2023-03-01T17:11:27;5.53;;;2.30;;
36725;SDS011;44936;52.086;5.150;2023-03-01T17:13:52;6.20;;;2.25;;
36725;SDS011;44936;52.086;5.150;2023-03-01T17:16:18;4.43;;;2.03;;
36725;SDS011;44936;52.086;5.150;2023-03-01T17:18:45;4.35;;;1.90;;
36725;SDS011;44936;52.086;5.150;2023-03-01T17:21:11;4.20;;;1.67;;
36725;SDS011;44936;52.086;5.150;2023-03-01T17:23:38;6.47;;;1.80;;
36725;SDS011;44936;52.086;5.150;2023-03-01T17:26:05;5.28;;;1.88;;
36725;SDS011;44936;52.086;5.150;2023-03-01T17:28:31;7.75;;;2.05;;
36725;SDS011;44936;52.086;5.150;2023-03-01T17:30:59;3.75;;;1.70;;
36725;SDS011;44936;52.086;5.150;2023-03-01T17:33:25;3.80;;;1.95;;
36725;SDS011;44936;52.086;5.150;2023-03-01T17:35:51;4.43;;;1.80;;
36725;SDS011;44936;52.086;5.150;2023-03-01T17:38:17;5.90;;;2.08;;
36725;SDS011;44936;52.086;5.150;2023-03-01T17:40:43;3.97;;;1.95;;
36725;SDS011;44936;52.086;5.150;2023-03-01T17:43:13;3.67;;;1.73;;